createdAt,value
2022-11-23T00:00:36.600Z,67.55
2022-11-23T00:10:38.498Z,51.20
2022-11-23T00:20:40.305Z,44.95
2022-11-23T00:30:42.267Z,65.55
2022-11-23T00:40:44.215Z,50.80
2022-11-23T00:50:46.073Z,62.72
2022-11-23T01:00:48.017Z,53.70
2022-11-23T01:10:49.831Z,51.63
2022-11-23T01:20:51.832Z,49.72
2022-11-23T01:30:53.658Z,60.17
2022-11-23T01:40:57.838Z,41.75
2022-11-23T01:51:03.789Z,52.75
2022-11-23T02:01:06.910Z,57.80
2022-11-23T02:11:11.022Z,58.95
2022-11-23T02:21:13.237Z,44.47
2022-11-23T02:31:21.028Z,61.13
2022-11-23T02:41:22.869Z,45.17
2022-11-23T02:51:24.720Z,58.67
2022-11-23T03:01:27.418Z,52.47
2022-11-23T03:11:29.341Z,52.85
2022-11-23T03:21:31.359Z,58.08
2022-11-23T03:31:39.307Z,74.38
2022-11-23T03:41:44.979Z,71.38
2022-11-23T03:51:47.206Z,80.60
2022-11-23T04:01:49.666Z,68.55
2022-11-23T04:11:56.876Z,61.72
2022-11-23T04:21:59.698Z,57.28
2022-11-23T04:32:04.801Z,57.72
2022-11-23T04:42:07.191Z,84.32
2022-11-23T04:52:09.572Z,65.18
2022-11-23T05:02:19.359Z,82.90
2022-11-23T05:12:38.660Z,80.43
2022-11-23T05:22:42.338Z,70.65
2022-11-23T05:32:48.858Z,62.80
2022-11-23T05:42:57.206Z,79.82
2022-11-23T05:52:59.991Z,71.68
2022-11-23T06:03:02.302Z,76.05
2022-11-23T06:13:06.497Z,41.60
2022-11-23T06:23:08.827Z,61.00
2022-11-23T06:33:11.076Z,44.22
2022-11-23T06:43:19.041Z,72.47
2022-11-23T06:53:21.096Z,92.93
2022-11-23T07:03:28.315Z,53.13
2022-11-23T07:23:39.519Z,60.20
2022-11-23T07:33:44.449Z,80.85
2022-11-23T07:43:46.608Z,79.72
2022-11-23T07:53:49.126Z,95.85
2022-11-23T08:03:51.052Z,86.28
2022-11-23T08:13:54.058Z,108.65
2022-11-23T08:23:55.810Z,91.63
2022-11-23T08:34:01.796Z,86.43
2022-11-23T08:44:05.397Z,94.85
2022-11-23T08:54:07.396Z,88.20
2022-11-23T09:04:09.254Z,76.30
2022-11-23T09:14:11.358Z,83.35
2022-11-23T09:24:14.117Z,78.18
2022-11-23T09:34:16.037Z,87.53
2022-11-23T09:44:47.206Z,76.10
2022-11-23T09:54:55.961Z,86.57
2022-11-23T10:05:00.626Z,88.35
2022-11-23T10:15:18.689Z,51.33
2022-11-23T10:25:22.428Z,71.40
2022-11-23T10:35:33.227Z,76.38
2022-11-23T10:45:35.003Z,74.63
2022-11-23T10:56:03.344Z,63.88
2022-11-23T11:06:10.098Z,63.63
2022-11-23T11:16:25.401Z,59.03
2022-11-23T11:26:29.621Z,49.70
2022-11-23T11:37:01.900Z,73.20
2022-11-23T11:47:23.099Z,53.75
2022-11-23T11:57:54.933Z,59.83
2022-11-23T12:08:26.461Z,64.88
2022-11-23T12:19:05.557Z,46.25
2022-11-23T12:29:41.315Z,39.20
2022-11-23T12:39:55.865Z,34.33
2022-11-23T12:50:05.777Z,38.17
2022-11-23T13:00:21.704Z,42.90
2022-11-23T13:11:13.562Z,42.83
2022-11-23T13:21:37.874Z,48.97
2022-11-23T13:31:40.088Z,38.35
2022-11-23T13:41:41.870Z,30.48
2022-11-23T13:51:43.795Z,41.20
2022-11-23T14:02:07.671Z,41.72
2022-11-23T14:12:12.614Z,35.58
2022-11-23T14:22:38.705Z,48.53
2022-11-23T14:33:04.041Z,36.78
2022-11-23T14:43:14.733Z,38.65
2022-11-23T14:53:16.879Z,43.97
2022-11-23T15:03:55.811Z,36.88
2022-11-23T15:13:54.405Z,69.88
2022-11-23T15:23:57.853Z,30.77
2022-11-23T15:34:06.421Z,42.65
2022-11-23T15:44:29.548Z,42.72
2022-11-23T15:54:36.874Z,36.25
2022-11-23T16:04:40.744Z,47.70
2022-11-23T16:14:42.637Z,40.78
2022-11-23T16:24:50.375Z,34.35
2022-11-23T16:34:53.013Z,52.28
2022-11-23T16:44:54.895Z,37.75
2022-11-23T16:54:56.807Z,43.28
2022-11-23T17:04:58.708Z,53.75
2022-11-23T17:15:00.653Z,47.28
2022-11-23T17:25:02.508Z,50.78
2022-11-23T17:35:04.845Z,42.35
2022-11-23T17:45:07.153Z,32.05
2022-11-23T17:55:10.881Z,43.20
2022-11-23T18:05:16.504Z,48.40
2022-11-23T18:15:21.554Z,63.27
2022-11-23T18:25:23.377Z,49.47
2022-11-23T18:35:25.486Z,43.70
2022-11-23T18:45:27.427Z,50.25
2022-11-23T18:55:29.179Z,58.28
2022-11-23T19:05:34.169Z,51.30
2022-11-23T19:15:37.226Z,67.18
2022-11-23T19:25:39.060Z,58.05
2022-11-23T19:35:40.979Z,41.63
2022-11-23T19:45:42.880Z,50.58
2022-11-23T19:55:44.832Z,51.60
2022-11-23T20:06:14.254Z,42.05
2022-11-23T20:16:18.853Z,48.50
2022-11-23T20:26:20.764Z,48.20
2022-11-23T20:36:23.671Z,60.25
2022-11-23T20:46:46.084Z,44.70
2022-11-23T20:56:48.785Z,46.22
2022-11-23T21:06:50.549Z,41.35
2022-11-23T21:16:54.805Z,51.17
2022-11-23T21:26:56.659Z,58.10
2022-11-23T21:36:58.724Z,43.60
2022-11-23T21:47:00.701Z,36.75
2022-11-23T21:57:02.698Z,53.85
2022-11-23T22:07:04.713Z,67.32
2022-11-23T22:17:06.875Z,53.10
2022-11-23T22:27:09.112Z,49.88
2022-11-23T22:37:11.288Z,46.03
2022-11-23T22:47:13.541Z,62.53
2022-11-23T22:57:15.758Z,35.70
2022-11-23T23:07:18.017Z,57.08
2022-11-23T23:17:20.213Z,54.17
2022-11-23T23:27:22.361Z,48.33
2022-11-23T23:37:26.152Z,49.10
2022-11-23T23:47:28.891Z,58.83
2022-11-23T23:57:31.103Z,51.88
